Lagomarcino's Cocoa Beano 5K

5K

Summary

Number of finishers:
2,661
Number of females:
2,030
Number of males:
625
Average time:
43:04

Info

October 29, 2016 in Davenport, IA

Races

Results By

5K - Results

Leaderboard
Charts and Stats
Select division:

displaying: 1 - 99 of 99
number of records per page: [10] [25] [50] [all]

    NO FN LN DIVISION OVERALL DIVPL SEXPL TIME PACE
1097 Kathleen Schmitt F6064 165 1/99 61/2030 25:20 8:11
13 Judith Deter F6064 392 2/99 200/2030 28:44 9:17
285 Jolene Vipond F6064 433 3/99 225/2030 29:15 9:27
432 Jeanene Gamer F6064 576 4/99 328/2030 31:06 10:02
438 Julia Natvig F6064 643 5/99 377/2030 31:53 10:17
1876 Cindy Ingleby F6064 682 6/99 406/2030 32:19 10:26
167 Kathy MacKie F6064 765 7/99 469/2030 33:12 10:43
1433 Jeri Vandervinne F6064 826 8/99 511/2030 33:55 10:57
1691 Peggy Humes F6064 894 9/99 560/2030 34:42 11:12
2021 Deborah Mail F6064 993 10/99 637/2030 35:59 11:37
2936 Cheryl Stallings F6064 1019 11/99 654/2030 36:22 11:44
1087 Mary Bain F6064 1131 12/99 739/2030 38:03 12:17
1157 Pamela Poulos F6064 1134 13/99 742/2030 38:07 12:18
1597 Marilyn Tillotson F6064 1149 14/99 754/2030 38:17 12:21
1593 Caroline Ruhl F6064 1303 15/99 885/2030 41:32 13:24
1006 Sheryl Trueblood F6064 1312 16/99 890/2030 41:41 13:27
2963 Michele Martin F6064 1317 17/99 895/2030 41:52 13:31
2832 Martha Adams F6064 1389 18/99 949/2030 43:33 14:03
969 Kathy Schradeya F6064 1518 19/99 1054/2030 47:13 15:14
775 Deb Hancock F6064 1548 20/99 1080/2030 47:34 15:21
1961 Bobbi Walzem F6064 1549 21/99 1081/2030 47:35 15:21
1176 Vicki Atzen F6064 1556 22/99 1086/2030 47:40 15:23
1095 Judy Wieskamp F6064 1565 23/99 1094/2030 47:48 15:25
1185 Jamie Vitek F6064 1601 24/99 1123/2030 48:24 15:37
483 Karen Wilfong F6064 1608 25/99 1128/2030 48:31 15:39
1240 Tina Beert F6064 1620 26/99 1138/2030 48:41 15:43
883 Louise Ramirez F6064 1645 27/99 1160/2030 49:06 15:51
1635 Kathy Kipp F6064 1676 28/99 1184/2030 49:42 16:02
134 Connie Maude Gregg F6064 1679 29/99 1187/2030 49:47 16:04
2193 Linda Tank F6064 1695 30/99 1202/2030 49:57 16:07
501 Jan Ebert F6064 1719 31/99 1223/2030 50:24 16:16
210 Renee Poust F6064 1750 32/99 1249/2030 50:49 16:24
291 Marietta Dziadyk F6064 1781 33/99 1276/2030 51:07 16:30
546 Julia Kresin F6064 1785 34/99 1279/2030 51:14 16:32
122 Deb McManus F6064 1800 35/99 1294/2030 51:24 16:35
2854 Terri Baustian F6064 1804 36/99 1296/2030 51:34 16:38
1299 Penny Jacobi F6064 1823 37/99 1313/2030 51:48 16:43
1170 Jeana McAllister F6064 1826 38/99 1316/2030 51:49 16:43
2427 Patt Englander F6064 1827 39/99 1317/2030 51:50 16:43
    NO FN LN DIVISION OVERALL DIVPL SEXPL TIME PACE
1550 Kristina Rowell F6064 1832 40/99 1322/2030 51:57 16:46
2882 Kathy Emorey F6064 1849 41/99 1336/2030 52:18 16:53
141 Christy Lundahl F6064 1853 42/99 1340/2030 52:20 16:53
2556 Lisa Betsworth F6064 1891 43/99 1373/2030 52:48 17:02
34 Theresa Crist F6064 1895 44/99 1377/2030 52:50 17:03
940 Cindy Dewitte F6064 1901 45/99 1383/2030 52:50 17:03
202 Marcia King F6064 1913 46/99 1392/2030 52:59 17:06
128 Barb Lowe F6064 1916 47/99 1393/2030 53:04 17:07
1524 Kate Swanson F6064 1923 48/99 1400/2030 53:08 17:09
767 Robin Hintze F6064 1930 49/99 1407/2030 53:15 17:11
625 Karen Miles F6064 1941 50/99 1415/2030 53:27 17:15
1900 Vicki Raney F6064 1944 51/99 1418/2030 53:31 17:16
2054 Marianne Whitmer F6064 1945 52/99 1419/2030 53:31 17:16
45 Chris Burroughs F6064 1957 53/99 1430/2030 53:36 17:18
2533 Chris Meersman F6064 1965 54/99 1437/2030 53:48 17:22
2451 Cheryl Ashcraft F6064 1966 55/99 1438/2030 53:49 17:22
1410 Pamela Geregova F6064 1988 56/99 1457/2030 54:09 17:28
596 Linda Biscontine F6064 1990 57/99 1459/2030 54:10 17:29
629 Kitty Temming F6064 2006 58/99 1473/2030 54:20 17:32
1031 Mary Kipp F6064 2009 59/99 1476/2030 54:22 17:33
118 Lori Bruning F6064 2022 60/99 1489/2030 54:33 17:36
1452 Cathe Hansen F6064 2048 61/99 1512/2030 55:03 17:46
2269 Jean Wenthold F6064 2052 62/99 1515/2030 55:07 17:47
721 Janet B Lampasona F6064 2056 63/99 1519/2030 55:10 17:48
543 Lucinda Anderson F6064 2075 64/99 1535/2030 55:20 17:51
621 Sue Ickes F6064 2114 65/99 1565/2030 55:45 17:59
2757 Kathy Gierlus F6064 2115 66/99 1566/2030 55:46 18:00
1212 Lindy Anderson F6064 2141 67/99 1588/2030 56:08 18:07
1066 Susan Koska F6064 2152 68/99 1597/2030 56:17 18:10
174 Lorri Lund F6064 2157 69/99 1602/2030 56:24 18:12
50 Jan Hofer F6064 2158 70/99 1603/2030 56:24 18:12
2184 Jean Giles F6064 2167 71/99 1612/2030 56:28 18:13
2647 Susan Goodley F6064 2168 72/99 1613/2030 56:28 18:13
1402 Yvonne Orr F6064 2202 73/99 1638/2030 56:55 18:22
235 Joan Larson F6064 2234 74/99 1666/2030 57:08 18:26
91 Cyndi Gipp F6064 2242 75/99 1673/2030 57:11 18:27
806 Mary Griep F6064 2248 76/99 1678/2030 57:12 18:28
1105 Joan Fishburn F6064 2285 77/99 1711/2030 57:48 18:39
1081 Gail Jones F6064 2292 78/99 1717/2030 57:52 18:40
2363 Suzanne O'Brien F6064 2317 79/99 1740/2030 58:14 18:47
    NO FN LN DIVISION OVERALL DIVPL SEXPL TIME PACE
334 Gloria Grafton F6064 2328 80/99 1748/2030 58:27 18:52
2161 Franki Cunningham F6064 2337 81/99 1755/2030 58:35 18:54
1600 Deborah Vanspeybroeck F6064 2369 82/99 1784/2030 59:00 19:02
1206 Pamela Aring F6064 2372 83/99 1787/2030 59:04 19:04
1796 Cyndi Klingaman F6064 2379 84/99 1794/2030 59:11 19:06
848 Vickie Skelton F6064 2389 85/99 1801/2030 59:17 19:08
2529 Sandy Lagomarcino F6064 2422 86/99 1828/2030 59:51 19:19
1677 Ann Lagomarcino F6064 2424 87/99 1830/2030 59:54 19:20
332 Davia Gallup F6064 2453 88/99 1855/2030 1:00:26 19:30
946 Marylou Witherspoon F6064 2478 89/99 1878/2030 1:00:55 19:39
559 Linda Temple F6064 2512 90/99 1905/2030 1:01:33 19:52
563 Krisanne Meehan F6064 2525 91/99 1916/2030 1:01:49 19:57
2456 Sharon Wales F6064 2527 92/99 1918/2030 1:01:54 19:58
1067 Debbie Crouch F6064 2532 93/99 1922/2030 1:02:02 20:01
462 Claire Flanagan F6064 2560 94/99 1946/2030 1:02:23 20:08
451 Gail McIntyre F6064 2565 95/99 1951/2030 1:02:28 20:09
258 Cindy Zapf F6064 2568 96/99 1953/2030 1:02:37 20:12
803 Marlece Edler F6064 2623 97/99 2002/2030 1:07:04 21:38
1822 Mary Bulens F6064 2624 98/99 2003/2030 1:07:05 21:39
882 Katie Manley-Buser F6064 2653 99/99 2025/2030 1:12:51 23:30

  • share - click this icon in the results above to share via Facebook, Twitter, email, and more
  • print - click this icon in the results above for a printable page
  • radius - click this icon in the results above to show finishers before and after